Time;durP1;ratioP1;P1;durP2;ratioP2;P2;SDS_P1;SDS_P2;PMS_P1;PMS_P2;Temp;Humidity;BMP_temperature;BMP_pressure;BME280_temperature;BME280_humidity;BME280_pressure;Samples;Min_cycle;Max_cycle;Signal;HPM_P1;HPM_P2
2021/10/04 00:00:46;;;;;;;0.80;0.40;;;;;;;8.06;84.79;90696.41;4993999;28;20019;-87
2021/10/04 00:03:11;;;;;;;0.63;0.35;;;;;;;7.99;85.66;90698.00;4997639;28;20037;-87
2021/10/04 00:05:36;;;;;;;0.50;0.30;;;;;;;7.96;86.79;90696.81;4991770;28;20038;-87
2021/10/04 00:08:03;;;;;;;0.60;0.30;;;;;;;7.90;87.22;90700.66;4991081;28;20014;-87
2021/10/04 00:10:28;;;;;;;0.52;0.30;;;;;;;7.87;86.65;90703.88;4991222;28;20404;-87
2021/10/04 00:12:54;;;;;;;0.98;0.38;;;;;;;7.94;87.38;90709.31;4991267;28;20022;-87
2021/10/04 00:15:20;;;;;;;0.60;0.20;;;;;;;7.98;86.79;90715.38;4992307;28;20034;-87
2021/10/04 00:17:46;;;;;;;1.08;0.30;;;;;;;8.13;86.18;90719.28;4991201;28;20485;-87
2021/10/04 00:20:12;;;;;;;0.70;0.30;;;;;;;8.04;86.18;90714.13;4978550;28;20078;-87
2021/10/04 00:22:38;;;;;;;2.05;0.40;;;;;;;8.03;86.14;90712.63;4988141;28;20027;-87
2021/10/04 00:25:03;;;;;;;0.90;0.20;;;;;;;8.06;86.85;90722.38;4971583;28;20053;-87
2021/10/04 00:27:29;;;;;;;0.63;0.35;;;;;;;8.05;87.38;90717.47;4971629;28;20034;-87
2021/10/04 00:29:54;;;;;;;3.25;0.40;;;;;;;8.01;87.68;90708.81;4988088;28;20420;-87
2021/10/04 00:35:03;;;;;;;0.60;0.30;;;;;;;7.99;87.29;90701.34;5052608;28;20557;-87
2021/10/04 00:37:29;;;;;;;1.73;0.35;;;;;;;7.99;87.32;90708.38;5021847;28;20021;-89
2021/10/04 00:39:55;;;;;;;1.08;0.30;;;;;;;7.97;87.29;90713.88;5055069;28;20056;-87
2021/10/04 00:42:21;;;;;;;0.65;0.30;;;;;;;7.97;87.31;90716.47;5038215;28;20420;-88
2021/10/04 00:44:50;;;;;;;0.60;0.38;;;;;;;7.89;87.64;90719.91;5019001;28;20076;-87
2021/10/04 00:47:18;;;;;;;0.80;0.30;;;;;;;7.84;87.80;90722.66;5017998;28;20021;-88
2021/10/04 00:49:44;;;;;;;3.05;0.40;;;;;;;7.92;87.62;90727.06;4986303;28;20030;-87
2021/10/04 00:52:09;;;;;;;1.45;0.50;;;;;;;7.89;87.66;90719.91;4985861;28;20026;-88
2021/10/04 00:54:35;;;;;;;1.80;0.25;;;;;;;7.90;86.95;90729.19;5002106;28;20483;-87
2021/10/04 00:57:01;;;;;;;0.80;0.20;;;;;;;7.92;86.76;90727.06;5001832;28;20017;-88
2021/10/04 00:59:26;;;;;;;1.13;0.20;;;;;;;7.98;87.24;90730.97;5002529;28;20026;-89
2021/10/04 01:01:52;;;;;;;1.17;0.40;;;;;;;7.93;87.73;90728.56;5018096;28;20033;-88
2021/10/04 01:04:17;;;;;;;2.97;0.50;;;;;;;7.89;88.47;90727.69;5018186;28;20022;-88
2021/10/04 01:06:42;;;;;;;0.35;0.20;;;;;;;7.87;88.56;90740.19;5001080;28;20017;-88
2021/10/04 01:09:08;;;;;;;1.33;0.40;;;;;;;7.87;88.05;90732.41;4985599;28;20376;-89
2021/10/04 01:11:33;;;;;;;0.98;0.30;;;;;;;7.93;88.54;90731.16;5017584;28;20395;-88
2021/10/04 01:13:59;;;;;;;1.55;0.50;;;;;;;7.87;87.97;90729.81;5033908;28;20036;-88
2021/10/04 01:16:24;;;;;;;2.25;0.47;;;;;;;7.88;87.85;90726.16;5017861;28;20391;-88
2021/10/04 01:18:50;;;;;;;0.43;0.28;;;;;;;7.87;88.42;90727.22;4985041;28;20029;-89
2021/10/04 01:21:15;;;;;;;0.70;0.40;;;;;;;7.87;88.32;90722.03;5001453;28;20018;-89
2021/10/04 01:23:41;;;;;;;1.15;0.40;;;;;;;7.88;88.48;90726.94;5001324;28;20063;-90
2021/10/04 01:26:06;;;;;;;0.93;0.43;;;;;;;7.86;88.78;90718.69;5001422;28;20117;-89
2021/10/04 01:28:31;;;;;;;1.88;0.40;;;;;;;7.85;88.60;90726.78;5001702;28;20025;-89
2021/10/04 01:30:57;;;;;;;4.95;0.50;;;;;;;7.87;87.82;90724.63;5000802;28;20028;-88
2021/10/04 01:33:22;;;;;;;0.82;0.50;;;;;;;7.77;88.40;90725.00;5001061;28;20025;-88
2021/10/04 01:35:48;;;;;;;0.68;0.35;;;;;;;7.70;87.74;90714.34;5000857;28;20032;-88
2021/10/04 01:38:13;;;;;;;2.08;0.32;;;;;;;7.72;88.56;90714.81;5001785;28;20028;-89
2021/10/04 01:40:43;;;;;;;1.05;0.40;;;;;;;7.70;88.70;90698.78;5001656;28;20502;-88
2021/10/04 01:43:09;;;;;;;0.43;0.30;;;;;;;7.71;88.52;90710.72;5002310;28;20030;-89
2021/10/04 01:45:34;;;;;;;0.70;0.30;;;;;;;7.66;88.43;90714.97;5000851;28;20029;-88
2021/10/04 01:47:59;;;;;;;1.02;0.50;;;;;;;7.64;88.61;90721.56;5017664;28;20395;-89
2021/10/04 01:50:32;;;;;;;0.57;0.30;;;;;;;7.58;88.58;90728.78;5000520;28;20487;-88
2021/10/04 01:52:58;;;;;;;1.27;0.40;;;;;;;7.55;88.73;90726.78;5000701;28;20030;-89
2021/10/04 01:55:23;;;;;;;0.40;0.20;;;;;;;7.58;88.46;90726.16;4985065;28;20028;-88
2021/10/04 01:57:49;;;;;;;0.45;0.25;;;;;;;7.54;88.72;90719.34;5017522;28;20507;-89
2021/10/04 02:00:17;;;;;;;0.40;0.20;;;;;;;7.50;88.34;90708.84;5000574;28;20025;-89
2021/10/04 02:02:44;;;;;;;0.73;0.40;;;;;;;7.46;88.83;90689.78;5017312;28;20030;-89
2021/10/04 02:05:10;;;;;;;1.60;0.30;;;;;;;7.51;89.18;90694.78;5000746;28;20171;-88
2021/10/04 02:07:37;;;;;;;0.60;0.38;;;;;;;7.40;89.31;90680.66;5000795;28;20026;-89
2021/10/04 02:10:13;;;;;;;1.05;0.45;;;;;;;7.46;89.45;90694.22;5017066;28;20060;-88
2021/10/04 02:12:39;;;;;;;0.98;0.38;;;;;;;7.46;89.75;90694.97;5000323;28;20028;-89
2021/10/04 02:15:05;;;;;;;2.15;0.40;;;;;;;7.43;89.72;90706.72;5000859;28;20325;-88
2021/10/04 02:17:31;;;;;;;0.68;0.38;;;;;;;7.61;88.78;90709.22;5000579;28;20013;-90
2021/10/04 02:19:57;;;;;;;0.80;0.40;;;;;;;7.62;88.39;90713.34;5000655;28;20033;-89
2021/10/04 02:22:22;;;;;;;0.93;0.52;;;;;;;7.56;88.42;90715.38;5033986;28;20029;-89
2021/10/04 02:24:48;;;;;;;0.77;0.40;;;;;;;7.52;88.65;90709.25;5000492;28;20048;-88
2021/10/04 02:27:13;;;;;;;2.00;0.40;;;;;;;7.44;89.04;90707.50;4999673;28;20479;-88
2021/10/04 02:29:39;;;;;;;0.80;0.40;;;;;;;7.40;89.45;90704.00;4984235;28;20424;-88
2021/10/04 02:32:05;;;;;;;1.20;0.40;;;;;;;7.46;89.99;90720.16;5016090;28;20441;-89
2021/10/04 02:34:30;;;;;;;0.63;0.40;;;;;;;7.52;89.49;90717.03;5000679;28;20033;-90
2021/10/04 02:36:56;;;;;;;1.42;0.35;;;;;;;7.58;89.37;90715.81;5016148;28;20389;-88
2021/10/04 02:39:21;;;;;;;1.05;0.32;;;;;;;7.55;89.26;90720.84;5000190;28;20028;-90
2021/10/04 02:41:47;;;;;;;0.70;0.30;;;;;;;7.69;88.55;90731.75;4999696;28;20021;-89
2021/10/04 02:44:12;;;;;;;0.43;0.30;;;;;;;7.61;88.49;90730.75;5000150;28;20059;-90
2021/10/04 02:46:37;;;;;;;0.90;0.40;;;;;;;7.62;88.67;90729.66;4999657;28;20021;-89
2021/10/04 02:49:03;;;;;;;2.80;0.35;;;;;;;7.68;88.65;90732.09;5000266;28;20040;-89
2021/10/04 02:51:28;;;;;;;0.40;0.30;;;;;;;7.64;88.12;90737.13;4999299;28;20029;-89
2021/10/04 02:53:54;;;;;;;1.45;0.30;;;;;;;7.65;87.62;90736.81;5015573;28;20220;-89
2021/10/04 02:56:19;;;;;;;1.27;0.35;;;;;;;7.67;87.68;90741.69;5007354;28;20014;-89
2021/10/04 02:58:45;;;;;;;1.58;0.32;;;;;;;7.60;88.91;90734.41;5015718;28;20083;-89
2021/10/04 03:01:10;;;;;;;0.60;0.38;;;;;;;7.60;88.99;90744.78;4983107;28;20039;-89
2021/10/04 03:03:35;;;;;;;1.52;0.30;;;;;;;7.58;89.32;90736.53;5015659;28;20104;-90
2021/10/04 03:06:01;;;;;;;0.88;0.40;;;;;;;7.53;89.51;90728.19;4999380;28;20032;-88
2021/10/04 03:08:26;;;;;;;0.90;0.40;;;;;;;7.48;89.77;90726.53;5016201;28;20442;-89
2021/10/04 03:10:52;;;;;;;0.40;0.30;;;;;;;7.48;89.67;90731.72;5016531;28;20021;-88
2021/10/04 03:13:17;;;;;;;0.30;0.20;;;;;;;7.41;89.65;90723.66;5000353;28;20017;-90
2021/10/04 03:15:43;;;;;;;1.17;0.50;;;;;;;7.38;89.94;90719.84;5012041;28;20005;-93
2021/10/04 03:18:10;;;;;;;0.60;0.40;;;;;;;7.46;89.16;90717.56;5024459;28;20019;-91
2021/10/04 03:20:36;;;;;;;1.05;0.40;;;;;;;7.47;89.40;90727.59;5023494;28;20030;-89
2021/10/04 03:23:01;;;;;;;0.40;0.30;;;;;;;7.43;89.67;90729.31;4985287;28;20029;-89
2021/10/04 03:25:27;;;;;;;0.57;0.40;;;;;;;7.33;90.01;90719.28;4999094;28;20021;-89
2021/10/04 03:27:52;;;;;;;1.05;0.50;;;;;;;7.31;90.27;90737.72;4983206;28;20021;-89
2021/10/04 03:30:18;;;;;;;1.85;0.40;;;;;;;7.35;90.42;90735.28;4999110;28;20037;-88
2021/10/04 03:32:43;;;;;;;0.77;0.40;;;;;;;7.39;90.31;90733.59;4999846;28;20384;-91
2021/10/04 03:35:09;;;;;;;1.20;0.32;;;;;;;7.36;90.14;90726.44;4999796;28;20022;-88
2021/10/04 03:37:34;;;;;;;0.30;0.20;;;;;;;7.33;89.67;90732.25;5015990;28;20021;-89
2021/10/04 03:40:00;;;;;;;0.80;0.35;;;;;;;7.37;89.01;90727.97;4983231;28;20048;-89
2021/10/04 03:42:25;;;;;;;1.15;0.30;;;;;;;7.39;89.07;90725.81;5031858;28;20017;-90
2021/10/04 03:44:51;;;;;;;0.88;0.30;;;;;;;7.36;89.58;90721.25;4999117;28;20487;-90
2021/10/04 03:47:16;;;;;;;0.70;0.40;;;;;;;7.36;89.94;90726.44;4998361;28;20022;-89
2021/10/04 03:49:41;;;;;;;0.85;0.38;;;;;;;7.33;89.86;90730.41;5016778;28;20043;-89
2021/10/04 03:52:07;;;;;;;2.60;0.40;;;;;;;7.36;90.05;90731.63;5015197;28;20360;-89
2021/10/04 03:54:32;;;;;;;1.75;0.45;;;;;;;7.39;89.92;90729.19;5032108;28;20018;-90
2021/10/04 03:56:58;;;;;;;1.30;0.68;;;;;;;7.49;89.54;90745.44;4982593;28;20028;-89
2021/10/04 03:59:23;;;;;;;1.80;0.30;;;;;;;7.56;88.91;90751.69;4998844;28;20025;-90
2021/10/04 04:01:49;;;;;;;0.75;0.50;;;;;;;7.68;88.34;90763.22;4998390;28;20083;-89
2021/10/04 04:04:14;;;;;;;0.82;0.40;;;;;;;7.64;88.47;90763.06;4999258;28;20491;-90
2021/10/04 04:06:41;;;;;;;1.45;0.40;;;;;;;7.74;87.20;90756.75;4982683;28;20128;-89
2021/10/04 04:09:06;;;;;;;1.00;0.60;;;;;;;7.49;88.01;90746.22;5000005;28;20520;-90
2021/10/04 04:11:32;;;;;;;0.60;0.40;;;;;;;7.42;89.53;90748.53;5018514;28;20101;-89
2021/10/04 04:13:57;;;;;;;1.48;0.45;;;;;;;7.45;89.26;90750.47;5002239;28;20026;-89
2021/10/04 04:16:23;;;;;;;1.88;0.50;;;;;;;7.44;89.74;90756.75;5002191;28;20013;-89
2021/10/04 04:18:48;;;;;;;1.45;0.40;;;;;;;7.42;89.91;90754.47;5002762;28;20021;-89
2021/10/04 04:21:14;;;;;;;0.60;0.40;;;;;;;7.51;89.97;90775.19;5018690;28;20051;-89
2021/10/04 04:23:39;;;;;;;1.63;0.47;;;;;;;7.51;89.81;90784.78;5002450;28;20084;-90
2021/10/04 04:26:04;;;;;;;0.63;0.30;;;;;;;7.52;89.66;90776.69;5018301;28;20029;-89
2021/10/04 04:28:30;;;;;;;0.95;0.40;;;;;;;7.56;89.43;90784.59;5002639;28;20087;-89
2021/10/04 04:31:46;;;;;;;1.25;0.40;;;;;;;7.57;89.22;90786.16;5002156;28;20017;-89
2021/10/04 04:34:12;;;;;;;1.20;0.40;;;;;;;7.54;88.95;90795.31;5018026;28;20510;-90
2021/10/04 04:36:39;;;;;;;0.65;0.30;;;;;;;7.52;89.23;90797.44;5035859;28;20025;-89
2021/10/04 04:39:04;;;;;;;0.95;0.47;;;;;;;7.53;88.96;90798.97;5019170;28;20026;-90
2021/10/04 04:41:30;;;;;;;0.40;0.30;;;;;;;7.53;89.08;90804.16;5000560;28;20025;-89
2021/10/04 04:43:55;;;;;;;0.80;0.40;;;;;;;7.51;89.23;90801.09;5018703;28;20029;-89
2021/10/04 04:46:20;;;;;;;1.38;0.40;;;;;;;7.50;88.81;90801.44;5034517;28;20044;-89
2021/10/04 04:48:46;;;;;;;0.95;0.32;;;;;;;7.55;88.13;90806.44;5002342;28;20032;-90
2021/10/04 04:51:11;;;;;;;0.68;0.30;;;;;;;7.44;88.63;90800.81;5001911;28;20025;-89
2021/10/04 04:53:40;;;;;;;0.88;0.40;;;;;;;7.43;89.19;90800.06;5002179;28;20021;-90
2021/10/04 04:56:05;;;;;;;0.30;0.30;;;;;;;7.53;89.52;90793.78;4997626;28;20026;-89
2021/10/04 04:58:31;;;;;;;0.98;0.57;;;;;;;7.33;90.32;90784.09;4999214;28;20034;-90
2021/10/04 05:00:56;;;;;;;1.25;0.52;;;;;;;7.29;90.91;90789.13;4998267;28;20030;-89
2021/10/04 05:03:22;;;;;;;2.22;0.52;;;;;;;7.26;90.97;90783.81;4998346;28;20030;-90
2021/10/04 05:05:47;;;;;;;3.10;0.40;;;;;;;7.25;90.88;90777.13;4998505;28;20030;-89
2021/10/04 05:08:12;;;;;;;2.78;0.40;;;;;;;7.21;91.11;90778.78;4982490;28;20068;-90
2021/10/04 05:10:38;;;;;;;1.60;0.60;;;;;;;7.19;91.02;90773.94;4998061;28;20113;-88
2021/10/04 05:13:03;;;;;;;1.40;0.65;;;;;;;7.15;91.35;90784.16;4998558;28;20026;-89
2021/10/04 05:15:30;;;;;;;2.63;0.52;;;;;;;7.15;91.15;90778.97;4998382;28;20089;-89
2021/10/04 05:17:56;;;;;;;1.00;0.60;;;;;;;7.15;91.19;90778.97;4966377;28;20022;-90
2021/10/04 05:20:22;;;;;;;2.75;0.90;;;;;;;7.19;90.60;90777.28;4965583;28;20113;-89
2021/10/04 05:22:56;;;;;;;1.90;0.93;;;;;;;7.22;90.77;90786.28;5008884;28;20403;-88
2021/10/04 05:25:22;;;;;;;2.45;0.70;;;;;;;7.18;90.84;90782.78;5017676;28;20254;-89
2021/10/04 05:27:47;;;;;;;2.28;0.80;;;;;;;7.20;90.45;90791.00;5035585;28;20040;-89
2021/10/04 05:30:12;;;;;;;0.80;0.60;;;;;;;7.28;90.05;90792.03;5034322;28;20480;-90
2021/10/04 05:32:38;;;;;;;1.27;0.65;;;;;;;7.17;90.45;90792.38;5017357;28;20036;-89
2021/10/04 05:35:04;;;;;;;1.08;0.60;;;;;;;7.27;89.94;90788.69;4984748;28;20033;-89
2021/10/04 05:37:30;;;;;;;1.20;0.57;;;;;;;7.32;89.99;90795.53;5017070;28;20032;-89
2021/10/04 05:39:55;;;;;;;0.90;0.50;;;;;;;7.31;90.61;90796.59;5036022;28;20073;-90
2021/10/04 05:42:20;;;;;;;0.70;0.40;;;;;;;7.31;90.09;90806.97;5033347;28;20022;-89
2021/10/04 05:44:46;;;;;;;0.98;0.70;;;;;;;7.36;90.06;90812.00;5018502;28;20017;-89
2021/10/04 05:47:12;;;;;;;4.43;0.47;;;;;;;7.34;90.54;90814.88;5033884;28;20018;-89
2021/10/04 05:49:39;;;;;;;2.53;0.57;;;;;;;7.37;90.60;90811.69;5017873;28;20025;-90
2021/10/04 05:52:05;;;;;;;0.80;0.40;;;;;;;7.32;90.64;90814.44;5017529;28;20025;-89
2021/10/04 05:54:30;;;;;;;3.33;0.60;;;;;;;7.39;90.45;90806.19;5001815;28;20025;-90
2021/10/04 05:56:56;;;;;;;1.20;0.60;;;;;;;7.29;90.71;90809.13;5017453;28;20025;-89
2021/10/04 05:59:21;;;;;;;1.33;0.70;;;;;;;7.28;90.67;90808.38;5017188;28;20030;-89
2021/10/04 06:01:46;;;;;;;3.55;0.50;;;;;;;7.27;91.23;90814.59;5017386;28;20032;-89
2021/10/04 06:04:12;;;;;;;1.98;0.60;;;;;;;7.35;90.75;90815.63;5002339;28;20036;-89
2021/10/04 06:06:37;;;;;;;1.88;0.70;;;;;;;7.40;90.75;90838.81;5001618;28;20071;-89
2021/10/04 06:09:03;;;;;;;2.05;0.70;;;;;;;7.44;90.45;90837.13;5001691;28;20036;-90
2021/10/04 06:11:31;;;;;;;1.35;0.82;;;;;;;7.52;90.04;90843.34;5019493;28;20025;-91
2021/10/04 06:13:57;;;;;;;1.50;0.80;;;;;;;7.48;89.80;90843.22;5020223;28;20464;-92
2021/10/04 06:16:23;;;;;;;2.42;0.50;;;;;;;7.48;89.39;90843.22;5001757;28;20040;-89
2021/10/04 06:18:48;;;;;;;1.52;0.68;;;;;;;7.29;89.64;90850.59;5002145;28;20115;-90
2021/10/04 06:21:14;;;;;;;2.45;0.63;;;;;;;7.35;90.04;90860.50;5000787;28;20033;-89
2021/10/04 06:23:39;;;;;;;1.98;0.70;;;;;;;7.49;89.22;90865.50;5000571;28;20441;-89
2021/10/04 06:26:05;;;;;;;1.35;0.57;;;;;;;7.33;89.46;90870.41;5001607;28;20032;-89
2021/10/04 06:28:30;;;;;;;1.38;0.80;;;;;;;7.33;89.54;90865.22;5001718;28;20246;-90
2021/10/04 06:30:56;;;;;;;1.67;0.70;;;;;;;7.37;89.67;90878.31;4994645;28;20022;-89
2021/10/04 06:33:21;;;;;;;2.40;0.60;;;;;;;7.18;90.68;90889.03;5039955;23;20087;-90
2021/10/04 06:35:47;;;;;;;0.93;0.50;;;;;;;7.26;90.95;90895.28;5024521;28;20041;-86
2021/10/04 06:38:13;;;;;;;0.90;0.45;;;;;;;7.23;90.93;90899.22;4986084;28;20025;-87
2021/10/04 06:40:38;;;;;;;1.48;0.40;;;;;;;7.24;90.63;90892.22;5002069;28;20033;-87
2021/10/04 06:43:04;;;;;;;0.93;0.43;;;;;;;7.31;89.55;90895.09;5021474;28;20026;-87
2021/10/04 06:45:29;;;;;;;1.83;0.40;;;;;;;7.33;89.64;90908.53;5024240;28;20035;-87
2021/10/04 06:47:55;;;;;;;0.75;0.43;;;;;;;7.27;89.64;90907.16;4999397;28;20014;-86
2021/10/04 06:50:20;;;;;;;0.52;0.22;;;;;;;7.28;88.54;90906.88;5000961;28;20033;-87
2021/10/04 06:52:45;;;;;;;0.70;0.40;;;;;;;7.36;88.60;90913.09;5001562;28;20506;-86
2021/10/04 06:55:11;;;;;;;0.93;0.40;;;;;;;7.43;88.09;90908.22;5035773;28;20030;-87
2021/10/04 06:57:37;;;;;;;0.70;0.22;;;;;;;7.32;88.30;90892.22;5001960;28;20028;-86
2021/10/04 07:00:08;;;;;;;0.68;0.40;;;;;;;7.37;88.64;90906.84;5002022;28;20084;-88
2021/10/04 07:02:33;;;;;;;0.40;0.20;;;;;;;7.50;88.11;90916.28;5001853;28;20414;-86
2021/10/04 07:04:59;;;;;;;1.15;0.35;;;;;;;7.44;88.51;90909.72;5015902;28;20025;-86
2021/10/04 07:07:25;;;;;;;0.43;0.32;;;;;;;7.42;88.33;90902.28;5017132;28;20395;-87
2021/10/04 07:09:50;;;;;;;0.82;0.35;;;;;;;7.31;88.50;90906.22;4985193;28;20053;-86
2021/10/04 07:12:16;;;;;;;0.50;0.20;;;;;;;7.29;89.74;90918.00;5016448;28;20029;-86
2021/10/04 07:14:41;;;;;;;2.63;0.40;;;;;;;7.46;88.94;90912.78;4999104;28;20526;-87
2021/10/04 07:17:07;;;;;;;2.63;0.40;;;;;;;7.39;88.65;90922.88;4999060;28;20025;-86
2021/10/04 07:19:32;;;;;;;0.95;0.38;;;;;;;7.30;89.31;90924.69;5015247;28;20021;-85
2021/10/04 07:21:59;;;;;;;0.50;0.20;;;;;;;7.37;88.56;90932.75;4983590;28;20029;-88
2021/10/04 07:24:24;;;;;;;1.45;0.30;;;;;;;7.49;88.14;90938.09;5011895;28;20484;-87
2021/10/04 07:27:03;;;;;;;3.05;0.30;;;;;;;7.39;88.51;90948.78;4998396;28;20024;-86
2021/10/04 07:29:29;;;;;;;1.48;0.40;;;;;;;7.28;88.57;90952.75;5008715;28;20026;-87
2021/10/04 07:31:55;;;;;;;0.68;0.43;;;;;;;7.12;89.31;90945.44;5011729;28;20026;-87
2021/10/04 07:34:20;;;;;;;2.05;0.52;;;;;;;7.22;90.33;90934.00;4979930;28;20069;-87
2021/10/04 07:36:46;;;;;;;1.27;0.60;;;;;;;7.29;90.67;90929.13;5013177;28;20023;-87
2021/10/04 07:39:11;;;;;;;1.17;0.60;;;;;;;7.35;90.21;90942.66;4995626;28;20026;-86
2021/10/04 07:41:37;;;;;;;1.58;0.68;;;;;;;7.29;90.60;90949.84;4984215;28;20076;-87
2021/10/04 07:44:02;;;;;;;1.05;0.50;;;;;;;7.38;89.45;90957.63;4997976;28;20030;-85
2021/10/04 07:46:28;;;;;;;0.80;0.40;;;;;;;7.45;89.39;90963.09;5000075;28;20024;-86
2021/10/04 07:48:53;;;;;;;1.20;0.90;;;;;;;7.58;87.66;90972.56;4999347;28;20037;-86
2021/10/04 07:51:19;;;;;;;2.17;0.60;;;;;;;7.40;88.39;90971.81;4999472;28;20025;-85
2021/10/04 07:53:45;;;;;;;1.23;0.30;;;;;;;7.53;87.88;90979.75;4999744;28;20053;-87
2021/10/04 07:56:10;;;;;;;1.45;0.50;;;;;;;7.45;89.19;90978.66;4983133;28;20129;-87
2021/10/04 07:58:36;;;;;;;1.23;0.40;;;;;;;7.42;90.19;90990.44;5002670;28;20441;-86
2021/10/04 08:01:02;;;;;;;1.50;0.40;;;;;;;7.47;90.86;91002.47;5019446;28;20075;-87
2021/10/04 08:03:27;;;;;;;2.00;0.30;;;;;;;7.58;90.91;90992.53;5019077;28;20079;-87
2021/10/04 08:05:53;;;;;;;0.82;0.28;;;;;;;7.47;89.71;90986.91;5002728;28;20025;-86
2021/10/04 08:08:18;;;;;;;0.50;0.40;;;;;;;7.63;90.12;90995.75;5019062;28;20163;-86
2021/10/04 08:13:50;;;;;;;1.40;0.20;;;;;;;7.68;89.62;90996.66;4981608;28;20510;-90
2021/10/04 08:16:16;;;;;;;1.10;0.32;;;;;;;7.64;89.92;90999.09;4984448;28;20025;-86
2021/10/04 08:18:41;;;;;;;0.35;0.20;;;;;;;7.64;89.08;91002.44;4980738;28;20025;-86
2021/10/04 08:21:07;;;;;;;0.38;0.28;;;;;;;7.78;87.91;91004.13;5017039;28;20028;-85
2021/10/04 08:23:32;;;;;;;0.30;0.20;;;;;;;7.80;87.77;91005.31;5000272;28;20022;-86
2021/10/04 08:25:58;;;;;;;0.52;0.22;;;;;;;7.87;86.80;91007.44;4983730;28;20026;-86
2021/10/04 08:28:23;;;;;;;0.60;0.30;;;;;;;7.68;88.25;91022.59;4983217;28;20411;-86
2021/10/04 08:30:49;;;;;;;0.38;0.20;;;;;;;7.72;88.09;91024.25;5000585;28;20033;-88
2021/10/04 08:33:14;;;;;;;0.70;0.13;;;;;;;7.88;87.37;91021.97;4995569;28;20029;-85
2021/10/04 08:35:40;;;;;;;0.30;0.20;;;;;;;7.82;87.89;91028.38;5003252;28;20025;-86
2021/10/04 08:38:05;;;;;;;1.48;0.30;;;;;;;7.71;89.17;91022.75;5019020;28;20021;-87
2021/10/04 08:40:31;;;;;;;0.50;0.35;;;;;;;7.69;88.83;91018.91;5035987;28;20079;-89
2021/10/04 08:42:56;;;;;;;0.80;0.30;;;;;;;7.81;89.48;91026.81;5035988;28;20037;-88
2021/10/04 08:45:26;;;;;;;0.38;0.20;;;;;;;7.86;88.06;91021.50;5018825;28;20021;-88
2021/10/04 08:47:52;;;;;;;0.38;0.20;;;;;;;7.89;87.46;91023.47;5018369;28;20017;-87
2021/10/04 08:50:17;;;;;;;0.45;0.10;;;;;;;7.89;88.09;91039.03;5002066;28;20041;-88
2021/10/04 08:52:43;;;;;;;0.30;0.10;;;;;;;7.94;87.84;91030.31;5019343;28;20462;-87
2021/10/04 08:55:08;;;;;;;2.08;0.28;;;;;;;8.02;88.24;91030.31;5034470;28;20475;-87
2021/10/04 08:57:34;;;;;;;2.08;0.40;;;;;;;8.03;89.06;91011.06;5018178;28;20049;-88
2021/10/04 08:59:59;;;;;;;1.75;0.35;;;;;;;8.07;89.42;91014.56;5018470;28;20025;-87
2021/10/04 09:02:25;;;;;;;0.60;0.38;;;;;;;8.21;89.57;91024.00;5000971;28;20029;-87
2021/10/04 09:05:10;;;;;;;0.40;0.30;;;;;;;8.15;88.64;91016.38;5015922;28;20029;-87
2021/10/04 09:07:49;;;;;;;1.38;0.40;;;;;;;8.32;88.02;91010.38;5005587;28;20021;-86
2021/10/04 09:10:17;;;;;;;0.65;0.20;;;;;;;8.32;88.05;91004.44;4997812;28;20026;-86
2021/10/04 09:12:53;;;;;;;1.08;0.30;;;;;;;8.29;87.92;90999.84;4997637;28;20032;-87
2021/10/04 09:15:29;;;;;;;1.67;0.55;;;;;;;8.55;87.86;91010.16;5014077;28;20045;-88
2021/10/04 09:17:56;;;;;;;2.38;1.05;;;;;;;8.59;88.31;91013.69;5014156;28;20480;-87
2021/10/04 09:20:21;;;;;;;1.80;0.68;;;;;;;8.68;88.42;91016.22;4997480;28;20049;-87
2021/10/04 09:22:47;;;;;;;1.00;0.70;;;;;;;8.63;88.02;91011.22;4997505;28;20032;-87
2021/10/04 09:25:12;;;;;;;1.10;0.32;;;;;;;8.50;87.73;91008.50;4997585;28;20104;-86
2021/10/04 09:27:38;;;;;;;0.80;0.40;;;;;;;8.55;88.07;91005.75;4997408;28;20022;-87
2021/10/04 09:30:10;;;;;;;1.38;0.60;;;;;;;8.61;87.50;91012.25;4997068;28;20029;-87
2021/10/04 09:32:40;;;;;;;1.00;0.38;;;;;;;8.65;86.00;91009.03;5004021;28;20022;-86
2021/10/04 09:35:11;;;;;;;0.60;0.30;;;;;;;8.70;84.90;91001.84;5000402;28;20083;-87
2021/10/04 09:37:52;;;;;;;1.95;0.40;;;;;;;8.65;85.77;91006.44;5034504;28;20114;-87
2021/10/04 09:40:27;;;;;;;0.47;0.30;;;;;;;8.67;86.12;91010.25;5014228;28;20029;-87
2021/10/04 09:42:52;;;;;;;0.40;0.30;;;;;;;8.69;87.02;91008.09;5014623;28;20071;-87
2021/10/04 09:45:18;;;;;;;2.20;0.30;;;;;;;8.78;86.60;91021.81;4981155;28;20022;-87
2021/10/04 09:47:43;;;;;;;0.85;0.30;;;;;;;8.79;86.55;91012.94;5026934;28;20028;-90
2021/10/04 09:50:10;;;;;;;0.90;0.22;;;;;;;8.80;85.87;91003.34;5014788;28;20022;-87
2021/10/04 09:52:39;;;;;;;1.45;0.25;;;;;;;8.83;85.94;91013.06;4982620;28;20108;-87
2021/10/04 09:55:26;;;;;;;2.45;0.32;;;;;;;8.74;86.69;91013.13;5015698;28;20379;-87
2021/10/04 09:58:06;;;;;;;0.98;0.20;;;;;;;8.88;86.78;91009.56;5023882;28;20113;-87
2021/10/04 10:00:42;;;;;;;0.47;0.20;;;;;;;9.08;86.64;91017.38;4997875;28;20102;-87
2021/10/04 10:03:08;;;;;;;1.38;0.40;;;;;;;9.04;86.44;91008.66;5013011;28;20021;-88
2021/10/04 10:05:35;;;;;;;0.63;0.35;;;;;;;9.09;86.34;91002.53;4980638;28;20488;-87
2021/10/04 10:08:01;;;;;;;0.70;0.38;;;;;;;9.09;85.66;91003.31;4995839;28;20021;-87
2021/10/04 10:10:27;;;;;;;0.63;0.30;;;;;;;9.15;85.62;91006.47;4996672;28;20087;-87
2021/10/04 10:12:52;;;;;;;0.90;0.50;;;;;;;9.27;85.41;91009.13;5013387;28;20033;-87
2021/10/04 10:15:20;;;;;;;0.57;0.30;;;;;;;9.34;85.72;91006.03;4997913;28;20025;-88
2021/10/04 10:17:46;;;;;;;0.70;0.40;;;;;;;9.42;85.15;91004.44;4980982;28;20030;-88
2021/10/04 10:20:15;;;;;;;1.38;0.52;;;;;;;9.58;84.04;90995.75;4997167;28;20474;-87
2021/10/04 10:22:48;;;;;;;0.70;0.30;;;;;;;9.73;84.68;90988.44;4996778;28;20018;-87
2021/10/04 10:25:41;;;;;;;0.50;0.30;;;;;;;9.94;85.19;90986.53;4996674;28;20431;-87
2021/10/04 10:31:51;;;;;;;0.28;0.20;;;;;;;10.31;84.38;90988.47;4999012;28;20037;-86
2021/10/04 10:34:44;;;;;;;0.52;0.32;;;;;;;10.51;81.80;90988.41;5020855;28;20038;-87
2021/10/04 10:37:21;;;;;;;0.55;0.30;;;;;;;10.58;81.43;90976.69;5012958;28;20468;-87
2021/10/04 10:39:53;;;;;;;1.83;0.30;;;;;;;10.52;79.49;90968.31;4981519;28;20112;-88
2021/10/04 10:42:41;;;;;;;0.60;0.22;;;;;;;10.26;80.62;90955.59;4994484;28;20026;-87
2021/10/04 10:45:08;;;;;;;0.70;0.30;;;;;;;10.32;79.78;90954.31;4990763;28;20022;-87
2021/10/04 10:50:55;;;;;;;0.43;0.20;;;;;;;10.22;79.29;90967.72;5025138;28;20032;-87
2021/10/04 10:53:24;;;;;;;2.72;0.32;;;;;;;10.31;82.74;90984.03;5007700;28;20021;-88
2021/10/04 10:55:54;;;;;;;1.13;0.50;;;;;;;10.17;81.58;90981.69;5016581;28;20557;-87
2021/10/04 10:58:25;;;;;;;2.17;0.30;;;;;;;10.22;80.82;90978.91;5016135;28;20026;-88
2021/10/04 11:01:35;;;;;;;0.90;0.30;;;;;;;10.39;80.03;90985.78;4999790;28;20025;-89
2021/10/04 11:04:00;;;;;;;2.13;0.50;;;;;;;10.65;81.84;90974.28;5004575;28;20538;-88
2021/10/04 11:06:52;;;;;;;0.90;0.30;;;;;;;11.15;79.24;90970.53;4980592;28;20037;-88
2021/10/04 11:09:17;;;;;;;1.00;0.30;;;;;;;11.04;76.17;90977.31;4995383;28;20420;-87
2021/10/04 11:11:43;;;;;;;0.70;0.30;;;;;;;11.17;78.95;90978.81;4983215;28;20028;-88
2021/10/04 11:14:16;;;;;;;1.10;0.20;;;;;;;11.12;76.91;90968.59;4982114;28;20030;-87
2021/10/04 11:16:47;;;;;;;1.17;0.30;;;;;;;11.41;80.04;90970.91;4981989;28;20028;-88
2021/10/04 11:19:24;;;;;;;0.80;0.40;;;;;;;11.53;78.14;90972.72;4980203;28;20033;-86
2021/10/04 11:21:51;;;;;;;1.00;0.30;;;;;;;11.60;78.38;90970.31;4996409;28;20049;-88
2021/10/04 11:27:48;;;;;;;0.60;0.20;;;;;;;11.88;76.02;90962.50;5021633;28;20039;-88
2021/10/04 11:30:14;;;;;;;0.70;0.30;;;;;;;11.82;76.13;90969.00;4999128;28;20025;-89
2021/10/04 11:32:39;;;;;;;0.68;0.30;;;;;;;11.73;72.89;90961.34;5024412;28;20096;-88
2021/10/04 11:35:15;;;;;;;0.40;0.20;;;;;;;11.83;74.58;90959.31;4979267;28;20033;-87
2021/10/04 11:37:40;;;;;;;0.57;0.20;;;;;;;11.88;75.33;90956.53;4996362;28;20022;-89
2021/10/04 11:40:06;;;;;;;0.88;0.22;;;;;;;11.92;74.20;90955.50;5023531;28;20018;-92
2021/10/04 11:42:32;;;;;;;0.30;0.20;;;;;;;11.88;70.99;90946.81;5004743;28;20018;-92
2021/10/04 11:45:00;;;;;;;0.52;0.30;;;;;;;11.88;73.48;90951.28;5021757;28;20010;-89
2021/10/04 11:47:26;;;;;;;1.27;0.30;;;;;;;11.91;74.70;90961.84;4964477;28;20402;-87
2021/10/04 11:49:53;;;;;;;0.93;0.30;;;;;;;11.89;73.71;90965.84;5008409;28;20021;-88
2021/10/04 11:52:19;;;;;;;2.17;0.40;;;;;;;11.87;74.02;90955.75;4979734;28;20112;-86
2021/10/04 11:54:55;;;;;;;0.20;0.20;;;;;;;11.74;76.24;90946.44;5012742;28;20034;-89
2021/10/04 11:57:20;;;;;;;0.30;0.20;;;;;;;11.94;75.56;90952.53;5032234;28;20018;-87